createdAt,value
2022-08-21T00:00:17.722Z,14.38
2022-08-21T00:02:50.801Z,12.35
2022-08-21T00:05:17.754Z,12.85
2022-08-21T00:07:44.513Z,14.48
2022-08-21T00:10:12.355Z,10.55
2022-08-21T00:12:39.692Z,9.30
2022-08-21T00:17:35.672Z,16.45
2022-08-21T00:20:04.309Z,13.80
2022-08-21T00:22:30.967Z,11.85
2022-08-21T00:24:57.617Z,12.73
2022-08-21T00:27:24.185Z,14.10
2022-08-21T00:29:50.777Z,14.13
2022-08-21T00:32:22.617Z,15.48
2022-08-21T00:34:49.189Z,15.50
2022-08-21T00:37:15.858Z,12.18
2022-08-21T00:39:42.581Z,14.10
2022-08-21T00:42:09.417Z,16.35
2022-08-21T00:44:36.174Z,10.40
2022-08-21T00:47:02.964Z,15.68
2022-08-21T00:49:29.543Z,12.23
2022-08-21T00:52:01.958Z,14.88
2022-08-21T00:54:32.265Z,12.77
2022-08-21T00:57:05.843Z,18.92
2022-08-21T00:59:38.352Z,10.40
2022-08-21T01:02:08.193Z,12.73
2022-08-21T01:04:35.505Z,15.18
2022-08-21T01:09:29.146Z,18.85
2022-08-21T01:11:55.792Z,21.20
2022-08-21T01:14:23.773Z,16.83
2022-08-21T01:16:53.897Z,14.18
2022-08-21T01:19:22.360Z,16.00
2022-08-21T01:21:49.524Z,13.60
2022-08-21T01:24:16.195Z,12.55
2022-08-21T01:26:45.055Z,19.58
2022-08-21T01:29:23.943Z,15.80
2022-08-21T01:31:50.679Z,17.23
2022-08-21T01:34:18.066Z,19.42
2022-08-21T01:39:13.187Z,12.98
2022-08-21T01:41:39.870Z,11.50
2022-08-21T01:44:06.497Z,14.55
2022-08-21T01:46:33.387Z,16.77
2022-08-21T01:48:59.996Z,17.10
2022-08-21T01:51:26.653Z,14.18
2022-08-21T01:53:53.301Z,12.63
2022-08-21T01:56:20.071Z,17.80
2022-08-21T01:58:48.205Z,16.48
2022-08-21T02:01:15.010Z,19.00
2022-08-21T02:03:42.309Z,14.23
2022-08-21T02:06:15.968Z,13.57
2022-08-21T02:08:42.591Z,15.20
2022-08-21T02:11:09.194Z,14.48
2022-08-21T02:13:35.906Z,14.38
2022-08-21T02:16:02.702Z,12.57
2022-08-21T02:18:29.306Z,14.30
2022-08-21T02:20:56.798Z,9.95
2022-08-21T02:23:27.333Z,9.23
2022-08-21T02:26:06.271Z,15.27
2022-08-21T02:28:33.508Z,16.27
2022-08-21T02:31:00.322Z,15.27
2022-08-21T02:33:28.131Z,9.93
2022-08-21T02:35:55.525Z,10.88
2022-08-21T02:40:51.998Z,11.35
2022-08-21T02:43:20.545Z,13.57
2022-08-21T02:45:48.405Z,14.30
2022-08-21T02:48:19.355Z,13.02
2022-08-21T02:50:48.900Z,22.55
2022-08-21T02:53:17.777Z,15.07
2022-08-21T02:55:49.763Z,16.25
2022-08-21T02:58:21.027Z,12.98
2022-08-21T03:00:48.067Z,14.55
2022-08-21T03:03:15.704Z,14.35
2022-08-21T03:05:42.879Z,13.60
2022-08-21T03:08:12.241Z,16.13
2022-08-21T03:10:41.461Z,12.32
2022-08-21T03:13:08.970Z,13.48
2022-08-21T03:15:35.939Z,18.35
2022-08-21T03:18:04.591Z,15.93
2022-08-21T03:20:32.025Z,16.20
2022-08-21T03:22:59.792Z,24.35
2022-08-21T03:25:40.068Z,12.48
2022-08-21T03:28:12.980Z,13.57
2022-08-21T03:30:42.224Z,16.77
2022-08-21T03:33:08.844Z,10.65
2022-08-21T03:35:39.027Z,15.35
2022-08-21T03:38:05.710Z,11.40
2022-08-21T03:40:32.678Z,18.33
2022-08-21T03:42:59.933Z,16.30
2022-08-21T03:45:27.000Z,15.43
2022-08-21T03:47:58.794Z,21.25
2022-08-21T03:50:27.850Z,15.63
2022-08-21T03:52:54.554Z,15.90
2022-08-21T03:55:21.256Z,15.70
2022-08-21T03:57:47.872Z,19.95
2022-08-21T04:00:15.997Z,15.48
2022-08-21T04:02:44.719Z,15.93
2022-08-21T04:05:14.103Z,19.58
2022-08-21T04:07:40.844Z,13.82
2022-08-21T04:10:08.574Z,16.73
2022-08-21T04:12:35.445Z,18.52
2022-08-21T04:15:03.063Z,17.92
2022-08-21T04:17:29.740Z,14.85
2022-08-21T04:19:56.364Z,16.65
2022-08-21T04:22:23.339Z,14.20
2022-08-21T04:24:50.838Z,19.10
2022-08-21T04:27:17.441Z,12.40
2022-08-21T04:29:44.016Z,20.73
2022-08-21T04:32:10.661Z,14.15
2022-08-21T04:34:37.428Z,17.48
2022-08-21T04:37:04.669Z,17.60
2022-08-21T04:41:57.838Z,18.27
2022-08-21T04:44:24.580Z,19.83
2022-08-21T04:46:51.179Z,14.73
2022-08-21T04:49:17.812Z,14.35
2022-08-21T04:51:44.973Z,18.63
2022-08-21T04:54:21.056Z,14.63
2022-08-21T04:57:00.687Z,12.93
2022-08-21T04:59:41.858Z,15.73
2022-08-21T05:02:10.026Z,13.07
2022-08-21T05:04:40.514Z,13.57
2022-08-21T05:07:11.354Z,14.95
2022-08-21T05:09:39.169Z,13.77
2022-08-21T05:12:06.715Z,16.05
2022-08-21T05:14:34.045Z,14.43
2022-08-21T05:19:27.639Z,16.48
2022-08-21T05:21:54.713Z,14.18
2022-08-21T05:24:21.437Z,16.30
2022-08-21T05:26:48.317Z,15.80
2022-08-21T05:29:16.522Z,18.77
2022-08-21T05:31:43.673Z,19.75
2022-08-21T05:34:10.325Z,22.00
2022-08-21T05:36:37.070Z,17.58
2022-08-21T05:39:04.471Z,18.90
2022-08-21T05:41:31.235Z,16.48
2022-08-21T05:44:00.974Z,18.70
2022-08-21T05:46:27.738Z,20.30
2022-08-21T05:48:54.391Z,17.83
2022-08-21T05:51:21.145Z,24.05
2022-08-21T05:53:48.467Z,20.20
2022-08-21T05:58:43.129Z,19.80
2022-08-21T06:01:10.102Z,18.10
2022-08-21T06:03:39.767Z,16.90
2022-08-21T06:06:06.690Z,16.35
2022-08-21T06:08:33.637Z,18.15
2022-08-21T06:11:01.607Z,21.25
2022-08-21T06:13:29.397Z,25.20
2022-08-21T06:16:23.553Z,20.33
2022-08-21T06:18:50.598Z,19.52
2022-08-21T06:21:17.413Z,21.10
2022-08-21T06:23:44.769Z,21.95
2022-08-21T06:26:13.800Z,20.48
2022-08-21T06:28:42.054Z,21.48
2022-08-21T06:31:21.337Z,19.33
2022-08-21T06:33:48.905Z,21.45
2022-08-21T06:36:15.717Z,20.17
2022-08-21T06:38:50.866Z,20.30
2022-08-21T06:41:18.320Z,20.23
2022-08-21T06:43:51.583Z,20.48
2022-08-21T06:48:44.645Z,19.48
2022-08-21T06:51:11.299Z,25.85
2022-08-21T06:53:37.987Z,26.55
2022-08-21T06:56:05.426Z,22.23
2022-08-21T06:58:32.056Z,27.55
2022-08-21T07:01:00.991Z,26.25
2022-08-21T07:03:32.468Z,23.40
2022-08-21T07:05:59.367Z,22.70
2022-08-21T07:08:27.897Z,21.65
2022-08-21T07:10:57.046Z,19.23
2022-08-21T07:13:24.317Z,21.95
2022-08-21T07:15:51.324Z,26.17
2022-08-21T07:18:18.117Z,22.77
2022-08-21T07:20:44.782Z,22.25
2022-08-21T07:23:27.418Z,24.40
2022-08-21T07:25:54.011Z,21.30
2022-08-21T07:28:20.836Z,24.20
2022-08-21T07:30:52.553Z,23.58
2022-08-21T07:33:19.197Z,23.67
2022-08-21T07:35:45.796Z,22.00
2022-08-21T07:38:12.394Z,20.92
2022-08-21T07:40:39.837Z,18.42
2022-08-21T07:43:06.457Z,20.05
2022-08-21T07:45:33.750Z,25.58
2022-08-21T07:48:00.342Z,25.88
2022-08-21T07:50:27.085Z,23.55
2022-08-21T07:52:53.811Z,25.60
2022-08-21T07:55:21.565Z,21.15
2022-08-21T07:57:48.921Z,21.60
2022-08-21T08:00:18.960Z,22.23
2022-08-21T08:02:52.726Z,21.67
2022-08-21T08:05:22.875Z,23.65
2022-08-21T08:07:49.679Z,19.63
2022-08-21T08:10:17.375Z,25.05
2022-08-21T08:12:45.289Z,21.60
2022-08-21T08:15:18.739Z,24.80
2022-08-21T08:17:45.410Z,18.17
2022-08-21T08:20:14.120Z,23.02
2022-08-21T08:22:42.315Z,21.35
2022-08-21T08:25:11.421Z,21.83
2022-08-21T08:27:38.497Z,21.77
2022-08-21T08:32:32.893Z,22.23
2022-08-21T08:34:59.461Z,21.38
2022-08-21T08:40:01.953Z,13.82
2022-08-21T08:42:37.985Z,17.02
2022-08-21T08:45:12.109Z,19.83
2022-08-21T08:47:50.720Z,15.80
2022-08-21T08:50:29.006Z,15.10
2022-08-21T08:53:02.959Z,15.73
2022-08-21T08:55:41.993Z,16.70
2022-08-21T08:58:18.000Z,18.03
2022-08-21T09:00:48.279Z,21.23
2022-08-21T09:03:16.538Z,17.40
2022-08-21T09:05:50.679Z,17.90
2022-08-21T09:08:41.902Z,19.20
2022-08-21T09:11:37.445Z,17.42
2022-08-21T09:14:07.036Z,16.07
2022-08-21T09:17:20.714Z,17.00
2022-08-21T09:20:11.158Z,18.75
2022-08-21T09:22:43.783Z,17.75
2022-08-21T09:25:23.992Z,27.08
2022-08-21T09:27:51.787Z,16.25
2022-08-21T09:30:20.380Z,16.35
2022-08-21T09:32:46.989Z,18.23
2022-08-21T09:35:20.756Z,18.63
2022-08-21T09:37:59.046Z,19.65
2022-08-21T09:40:45.500Z,16.10
2022-08-21T09:43:12.013Z,19.05
2022-08-21T09:45:40.453Z,17.75
2022-08-21T09:48:18.671Z,22.17
2022-08-21T09:50:46.045Z,16.25
2022-08-21T09:53:35.520Z,18.35
2022-08-21T09:56:35.638Z,17.13
2022-08-21T09:59:12.972Z,20.45
2022-08-21T10:01:45.600Z,15.82
2022-08-21T10:04:12.757Z,17.60
2022-08-21T10:06:39.738Z,19.65
2022-08-21T10:09:21.038Z,14.48
2022-08-21T10:12:13.604Z,17.35
2022-08-21T10:14:45.903Z,19.52
2022-08-21T10:17:24.477Z,13.50
2022-08-21T10:20:09.132Z,14.93
2022-08-21T10:22:50.221Z,15.45
2022-08-21T10:25:27.071Z,13.48
2022-08-21T10:30:52.743Z,15.63
2022-08-21T10:35:58.821Z,16.15
2022-08-21T10:39:02.634Z,17.25
2022-08-21T10:41:59.360Z,18.27
2022-08-21T10:44:47.311Z,47.38
2022-08-21T10:47:25.618Z,25.80
2022-08-21T10:50:11.492Z,39.83
2022-08-21T10:53:15.582Z,29.20
2022-08-21T10:55:49.279Z,20.35
2022-08-21T10:58:25.603Z,25.83
2022-08-21T11:00:57.258Z,22.90
2022-08-21T11:03:40.036Z,21.40
2022-08-21T11:06:30.866Z,17.42
2022-08-21T11:09:25.305Z,19.27
2022-08-21T11:11:59.499Z,23.00
2022-08-21T11:14:50.498Z,19.53
2022-08-21T11:17:22.404Z,19.55
2022-08-21T11:20:03.064Z,21.77
2022-08-21T11:22:38.623Z,20.85
2022-08-21T11:25:10.386Z,24.38
2022-08-21T11:27:50.003Z,24.92
2022-08-21T11:30:17.363Z,20.23
2022-08-21T11:33:18.213Z,30.50
2022-08-21T11:35:50.572Z,29.48
2022-08-21T11:38:27.843Z,31.73
2022-08-21T11:41:08.220Z,28.27
2022-08-21T11:43:37.890Z,29.95
2022-08-21T11:46:46.597Z,32.58
2022-08-21T11:49:22.396Z,26.05
2022-08-21T11:52:09.064Z,28.38
2022-08-21T11:55:01.920Z,25.05
2022-08-21T11:57:56.072Z,27.65
2022-08-21T12:00:56.933Z,32.83
2022-08-21T12:03:34.095Z,24.40
2022-08-21T12:08:37.567Z,23.00
2022-08-21T12:11:10.237Z,21.65
2022-08-21T12:14:02.008Z,29.65
2022-08-21T12:16:40.679Z,25.67
2022-08-21T12:19:20.531Z,29.35
2022-08-21T12:21:58.994Z,27.40
2022-08-21T12:24:28.632Z,28.83
2022-08-21T12:26:57.737Z,30.05
2022-08-21T12:29:28.734Z,30.38
2022-08-21T12:32:21.261Z,29.70
2022-08-21T12:34:51.185Z,31.58
2022-08-21T12:37:23.509Z,30.10
2022-08-21T12:39:53.727Z,30.10
2022-08-21T12:42:25.692Z,30.40
2022-08-21T12:44:59.853Z,27.20
2022-08-21T12:47:44.425Z,30.40
2022-08-21T12:50:17.017Z,27.67
2022-08-21T12:53:20.626Z,26.27
2022-08-21T12:55:48.134Z,25.15
2022-08-21T12:58:23.424Z,29.05
2022-08-21T13:01:05.985Z,25.30
2022-08-21T13:03:37.795Z,26.63
2022-08-21T13:06:06.377Z,23.90
2022-08-21T13:08:40.100Z,23.15
2022-08-21T13:11:11.334Z,16.33
2022-08-21T13:13:46.824Z,17.20
2022-08-21T13:16:23.742Z,13.55
2022-08-21T13:18:58.455Z,13.30
2022-08-21T13:21:30.787Z,16.25
2022-08-21T13:24:38.845Z,11.32
2022-08-21T13:27:02.331Z,10.73
2022-08-21T13:29:32.143Z,12.88
2022-08-21T13:32:02.707Z,11.55
2022-08-21T13:34:37.734Z,10.82
2022-08-21T13:37:09.790Z,16.63
2022-08-21T13:39:36.499Z,31.02
2022-08-21T13:42:10.106Z,21.00
2022-08-21T13:44:38.174Z,14.23
2022-08-21T13:47:07.400Z,13.65
2022-08-21T13:49:38.325Z,14.63
2022-08-21T13:52:07.646Z,23.88
2022-08-21T13:54:38.113Z,37.35
2022-08-21T13:57:16.165Z,19.45
2022-08-21T13:59:42.779Z,11.73
2022-08-21T14:02:14.467Z,14.60
2022-08-21T14:04:55.295Z,15.05
2022-08-21T14:07:27.700Z,14.90
2022-08-21T14:09:55.854Z,16.98
2022-08-21T14:12:43.434Z,11.85
2022-08-21T14:15:14.312Z,14.15
2022-08-21T14:17:42.621Z,12.25
2022-08-21T14:20:13.190Z,11.88
2022-08-21T14:22:48.200Z,12.85
2022-08-21T14:25:20.728Z,11.48
2022-08-21T14:28:09.963Z,10.60
2022-08-21T14:30:43.530Z,11.57
2022-08-21T14:33:13.312Z,14.50
2022-08-21T14:35:40.454Z,11.77
2022-08-21T14:40:48.847Z,14.98
2022-08-21T14:43:15.430Z,10.52
2022-08-21T14:45:42.083Z,10.80
2022-08-21T14:48:09.194Z,11.50
2022-08-21T14:50:36.015Z,8.65
2022-08-21T14:53:10.820Z,8.57
2022-08-21T14:55:58.636Z,11.93
2022-08-21T14:58:26.430Z,10.98
2022-08-21T15:00:54.988Z,10.20
2022-08-21T15:03:25.321Z,11.43
2022-08-21T15:05:52.316Z,10.20
2022-08-21T15:08:19.592Z,12.40
2022-08-21T15:11:08.650Z,11.20
2022-08-21T15:13:34.229Z,8.73
2022-08-21T15:16:01.053Z,10.18
2022-08-21T15:18:30.120Z,10.80
2022-08-21T15:20:57.304Z,7.20
2022-08-21T15:25:51.394Z,9.10
2022-08-21T15:28:19.292Z,7.95
2022-08-21T15:30:46.874Z,11.20
2022-08-21T15:33:13.551Z,7.85
2022-08-21T15:35:41.079Z,9.80
2022-08-21T15:38:07.934Z,6.55
2022-08-21T15:40:39.032Z,5.93
2022-08-21T15:43:06.593Z,7.60
2022-08-21T15:45:34.644Z,5.78
2022-08-21T15:48:02.079Z,6.15
2022-08-21T15:50:30.162Z,5.93
2022-08-21T15:52:56.767Z,6.38
2022-08-21T15:55:24.571Z,9.63
2022-08-21T16:00:25.580Z,7.78
2022-08-21T16:02:58.418Z,10.75
2022-08-21T16:05:25.165Z,8.15
2022-08-21T16:07:52.431Z,8.35
2022-08-21T16:10:22.221Z,10.82
2022-08-21T16:12:54.479Z,10.43
2022-08-21T16:15:21.728Z,9.93
2022-08-21T16:17:49.977Z,15.75
2022-08-21T16:20:25.449Z,12.35
2022-08-21T16:22:54.202Z,14.60
2022-08-21T16:25:21.733Z,10.95
2022-08-21T16:27:57.388Z,17.65
2022-08-21T16:30:26.605Z,13.85
2022-08-21T16:35:21.347Z,14.18
2022-08-21T16:37:52.775Z,12.73
2022-08-21T16:40:20.668Z,12.32
2022-08-21T16:42:48.778Z,13.70
2022-08-21T16:45:18.352Z,15.30
2022-08-21T16:47:44.956Z,12.00
2022-08-21T16:50:15.949Z,11.48
2022-08-21T16:52:43.267Z,11.27
2022-08-21T16:57:38.100Z,15.20
2022-08-21T17:00:11.564Z,11.15
2022-08-21T17:02:42.541Z,15.85
2022-08-21T17:05:13.778Z,13.10
2022-08-21T17:07:42.406Z,12.50
2022-08-21T17:10:10.961Z,14.13
2022-08-21T17:12:38.146Z,10.35
2022-08-21T17:17:36.528Z,11.50
2022-08-21T17:20:04.490Z,13.80
2022-08-21T17:22:31.352Z,13.30
2022-08-21T17:24:58.048Z,15.35
2022-08-21T17:27:28.216Z,10.27
2022-08-21T17:29:56.106Z,15.90
2022-08-21T17:32:23.058Z,8.32
2022-08-21T17:34:49.693Z,10.30
2022-08-21T17:37:16.314Z,10.05
2022-08-21T17:39:43.054Z,7.95
2022-08-21T17:42:13.728Z,10.43
2022-08-21T17:44:43.468Z,9.65
2022-08-21T17:47:10.818Z,11.93
2022-08-21T17:52:05.194Z,13.05
2022-08-21T17:54:31.812Z,9.68
2022-08-21T17:56:58.592Z,8.93
2022-08-21T17:59:25.996Z,10.85
2022-08-21T18:01:54.529Z,8.60
2022-08-21T18:04:21.113Z,11.60
2022-08-21T18:06:47.766Z,9.45
2022-08-21T18:09:14.427Z,11.43
2022-08-21T18:11:43.106Z,10.43
2022-08-21T18:14:10.875Z,13.93
2022-08-21T18:16:37.824Z,13.27
2022-08-21T18:19:09.227Z,14.20
2022-08-21T18:21:36.380Z,9.63
2022-08-21T18:24:03.196Z,10.45
2022-08-21T18:26:32.932Z,10.02
2022-08-21T18:29:01.573Z,12.13
2022-08-21T18:31:31.688Z,12.27
2022-08-21T18:34:00.990Z,10.60
2022-08-21T18:36:29.512Z,13.02
2022-08-21T18:39:13.610Z,10.77
2022-08-21T18:41:44.917Z,8.98
2022-08-21T18:44:13.884Z,13.82
2022-08-21T18:46:41.376Z,10.93
2022-08-21T18:49:07.968Z,16.20
2022-08-21T18:51:34.579Z,10.45
2022-08-21T18:54:01.331Z,12.23
2022-08-21T18:56:28.728Z,12.43
2022-08-21T18:58:58.318Z,13.07
2022-08-21T19:01:25.891Z,12.90
2022-08-21T19:03:52.827Z,14.25
2022-08-21T19:06:19.518Z,13.13
2022-08-21T19:08:46.104Z,11.82
2022-08-21T19:11:13.316Z,12.15
2022-08-21T19:16:09.610Z,17.50
2022-08-21T19:18:39.980Z,11.13
2022-08-21T19:21:07.615Z,13.00
2022-08-21T19:23:35.151Z,12.77
2022-08-21T19:26:07.446Z,13.57
2022-08-21T19:28:38.132Z,17.00
2022-08-21T19:31:29.560Z,12.52
2022-08-21T19:34:18.910Z,13.23
2022-08-21T19:36:46.076Z,18.95
2022-08-21T19:39:17.938Z,15.05
2022-08-21T19:41:50.627Z,10.88
2022-08-21T19:44:21.401Z,15.48
2022-08-21T19:46:51.087Z,13.35
2022-08-21T19:49:21.207Z,17.20
2022-08-21T19:51:49.381Z,14.93
2022-08-21T19:56:48.654Z,13.63
2022-08-21T19:59:18.358Z,17.55
2022-08-21T20:01:51.708Z,13.27
2022-08-21T20:04:19.444Z,19.05
2022-08-21T20:06:47.028Z,15.45
2022-08-21T20:09:14.792Z,18.08
2022-08-21T20:11:47.899Z,14.32
2022-08-21T20:14:18.093Z,15.77
2022-08-21T20:16:47.021Z,15.23
2022-08-21T20:19:13.684Z,21.92
2022-08-21T20:21:43.539Z,12.68
2022-08-21T20:24:14.865Z,15.80
2022-08-21T20:26:48.711Z,13.18
2022-08-21T20:29:16.963Z,16.55
2022-08-21T20:31:50.636Z,17.48
2022-08-21T20:34:17.523Z,12.65
2022-08-21T20:36:44.904Z,14.15
2022-08-21T20:39:14.560Z,21.00
2022-08-21T20:41:41.722Z,19.38
2022-08-21T20:44:12.700Z,16.55
2022-08-21T20:46:39.888Z,14.48
2022-08-21T20:49:09.285Z,16.05
2022-08-21T20:51:44.753Z,18.25
2022-08-21T20:54:33.437Z,15.40
2022-08-21T20:57:27.546Z,14.63
2022-08-21T21:00:01.321Z,16.58
2022-08-21T21:02:49.729Z,18.15
2022-08-21T21:05:29.982Z,14.52
2022-08-21T21:08:05.866Z,14.95
2022-08-21T21:10:48.289Z,16.50
2022-08-21T21:13:24.001Z,16.52
2022-08-21T21:15:54.781Z,17.45
2022-08-21T21:18:44.994Z,12.95
2022-08-21T21:24:27.659Z,19.08
2022-08-21T21:27:12.081Z,14.68
2022-08-21T21:29:57.295Z,21.38
2022-08-21T21:32:25.128Z,18.33
2022-08-21T21:34:51.851Z,14.38
2022-08-21T21:37:42.267Z,13.73
2022-08-21T21:40:11.891Z,14.15
2022-08-21T21:42:41.213Z,17.73
2022-08-21T21:45:13.449Z,14.27
2022-08-21T21:48:22.430Z,15.05
2022-08-21T21:51:00.767Z,17.80
2022-08-21T21:53:30.591Z,17.48
2022-08-21T21:56:14.396Z,13.63
2022-08-21T21:58:54.815Z,16.27
2022-08-21T22:01:46.696Z,14.27
2022-08-21T22:04:17.147Z,17.85
2022-08-21T22:06:59.138Z,22.25
2022-08-21T22:09:44.282Z,16.98
2022-08-21T22:12:49.882Z,17.88
2022-08-21T22:15:27.804Z,16.77
2022-08-21T22:18:10.442Z,16.27
2022-08-21T22:20:50.729Z,18.52
2022-08-21T22:23:21.575Z,18.20
2022-08-21T22:25:52.266Z,18.98
2022-08-21T22:31:21.020Z,17.85
2022-08-21T22:34:03.055Z,16.55
2022-08-21T22:36:34.155Z,20.33
2022-08-21T22:39:00.828Z,20.92
2022-08-21T22:41:31.255Z,16.45
2022-08-21T22:44:06.162Z,15.55
2022-08-21T22:46:37.197Z,15.75
2022-08-21T22:49:38.437Z,16.90
2022-08-21T22:52:18.080Z,16.42
2022-08-21T22:54:45.392Z,21.67
2022-08-21T23:00:34.077Z,16.30
2022-08-21T23:03:03.540Z,17.13
2022-08-21T23:05:30.657Z,13.93
2022-08-21T23:08:14.398Z,16.42
2022-08-21T23:10:56.491Z,16.38
2022-08-21T23:13:23.075Z,16.88
2022-08-21T23:16:20.759Z,13.60
2022-08-21T23:19:11.450Z,16.15
2022-08-21T23:21:59.722Z,19.13
2022-08-21T23:27:42.459Z,16.17
2022-08-21T23:30:15.340Z,15.98
2022-08-21T23:33:09.672Z,14.00
2022-08-21T23:36:04.937Z,17.58
2022-08-21T23:39:02.587Z,16.23
2022-08-21T23:42:02.434Z,12.98
2022-08-21T23:44:55.068Z,15.98
2022-08-21T23:47:32.227Z,13.38
2022-08-21T23:53:08.867Z,14.63
2022-08-21T23:56:18.101Z,15.43
2022-08-21T23:58:58.739Z,20.27
